Time;durP1;ratioP1;P1;durP2;ratioP2;P2;SDS_P1;SDS_P2;PMS_P1;PMS_P2;Temp;Humidity;BMP_temperature;BMP_pressure;BME280_temperature;BME280_humidity;BME280_pressure;Samples;Min_cycle;Max_cycle;Signal;HPM_P1;HPM_P2
2023/01/09 00:01:51;;;;;;;;;;;;;;;7.75;99.26;99337.03;5016304;28;19980;-81
2023/01/09 00:04:17;;;;;;;;;;;;;;;7.75;99.38;99329.19;5018162;28;19909;-81
2023/01/09 00:06:45;;;;;;;;;;;;;;;7.73;98.97;99331.91;5018104;28;19956;-81
2023/01/09 00:09:10;;;;;;;;;;;;;;;7.72;99.33;99325.00;5018326;28;19916;-81
2023/01/09 00:11:36;;;;;;;;;;;;;;;7.69;98.26;99330.38;5017815;28;19921;-81
2023/01/09 00:14:01;;;;;;;;;;;;;;;7.69;98.60;99327.75;5017873;28;19953;-80
2023/01/09 00:16:27;;;;;;;;;;;;;;;7.69;98.92;99330.38;5017863;28;19916;-81
2023/01/09 00:18:52;;;;;;;;;;;;;;;7.69;99.28;99331.22;5017788;28;20023;-81
2023/01/09 00:21:18;;;;;;;;;;;;;;;7.68;99.37;99336.53;5017838;28;19910;-81
2023/01/09 00:23:43;;;;;;;;;;;;;;;7.68;99.50;99339.13;5018000;28;19917;-81
2023/01/09 00:26:10;;;;;;;;;;;;;;;7.65;98.90;99329.69;5017894;28;19921;-81
2023/01/09 00:28:35;;;;;;;;;;;;;;;7.65;98.87;99328.84;5017501;28;19917;-81
2023/01/09 00:31:02;;;;;;;;;;;;;;;7.63;99.18;99326.31;5017799;28;19925;-81
2023/01/09 00:33:28;;;;;;;;;;;;;;;7.63;99.19;99317.69;5017813;28;19924;-81
2023/01/09 00:35:54;;;;;;;;;;;;;;;7.60;98.12;99317.84;5017854;28;20231;-81
2023/01/09 00:38:19;;;;;;;;;;;;;;;7.59;98.95;99317.00;5017565;28;19929;-81
2023/01/09 00:40:44;;;;;;;;;;;;;;;7.57;99.16;99311.03;5017725;28;19920;-81
2023/01/09 00:43:10;;;;;;;;;;;;;;;7.59;98.96;99313.56;5017552;28;19921;-81
2023/01/09 00:45:35;;;;;;;;;;;;;;;7.57;98.78;99315.41;5016038;28;20197;-81
2023/01/09 00:48:02;;;;;;;;;;;;;;;7.56;99.35;99319.75;5017741;28;19914;-81
2023/01/09 00:50:29;;;;;;;;;;;;;;;7.56;99.38;99322.34;5017483;28;20142;-81
2023/01/09 00:52:56;;;;;;;;;;;;;;;7.56;99.64;99318.91;5016312;28;19909;-80
2023/01/09 00:55:22;;;;;;;;;;;;;;;7.55;99.62;99312.88;5017451;28;20188;-81
2023/01/09 00:57:48;;;;;;;;;;;;;;;7.54;99.54;99316.38;5017267;28;19929;-81
2023/01/09 01:00:13;;;;;;;;;;;;;;;7.54;99.92;99321.59;5017592;28;19928;-81
2023/01/09 01:02:38;;;;;;;;;;;;;;;7.55;99.75;99327.66;5015987;28;19953;-81
2023/01/09 01:07:48;;;;;;;;;;;;;;;7.53;99.71;99313.88;5017277;28;19948;-81
2023/01/09 01:10:19;;;;;;;;;;;;;;;7.53;100.00;99319.06;5017572;28;20116;-81
2023/01/09 01:12:45;;;;;;;;;;;;;;;7.52;99.85;99317.41;5018091;28;19924;-81
2023/01/09 01:15:10;;;;;;;;;;;;;;;7.49;99.60;99327.06;5021048;28;19917;-81
2023/01/09 01:17:36;;;;;;;;;;;;;;;7.48;99.59;99327.97;5019689;28;19922;-81
2023/01/09 01:20:02;;;;;;;;;;;;;;;7.48;99.74;99332.34;5021464;28;20005;-81
2023/01/09 01:22:27;;;;;;;;;;;;;;;7.47;99.75;99338.47;5038186;28;19967;-81
2023/01/09 01:24:53;;;;;;;;;;;;;;;7.46;99.87;99337.63;5040671;28;19936;-81
2023/01/09 01:27:18;;;;;;;;;;;;;;;7.46;100.00;99332.44;5040803;28;20228;-81
2023/01/09 01:29:43;;;;;;;;;;;;;;;7.46;100.00;99340.25;5040439;28;19948;-81
2023/01/09 01:32:10;;;;;;;;;;;;;;;7.46;100.00;99334.19;5040943;28;19913;-81
2023/01/09 01:34:35;;;;;;;;;;;;;;;7.44;99.45;99336.00;5038991;28;20151;-81
2023/01/09 01:37:00;;;;;;;;;;;;;;;7.43;99.92;99332.56;5040904;28;19959;-81
2023/01/09 01:39:26;;;;;;;;;;;;;;;7.45;100.00;99327.28;5040600;28;20192;-81
2023/01/09 01:41:51;;;;;;;;;;;;;;;7.44;100.00;99323.00;5040317;28;20439;-81
2023/01/09 01:44:35;;;;;;;;;;;;;;;7.45;100.00;99327.28;5038942;28;20001;-81
2023/01/09 01:47:01;;;;;;;;;;;;;;;7.43;100.00;99327.38;5040554;28;19913;-81
2023/01/09 01:49:26;;;;;;;;;;;;;;;7.43;100.00;99324.75;5039059;28;20205;-81
2023/01/09 01:51:52;;;;;;;;;;;;;;;7.41;100.00;99326.59;5038600;28;20208;-81
2023/01/09 01:54:23;;;;;;;;;;;;;;;7.42;100.00;99325.69;5039337;28;20126;-81
2023/01/09 01:56:50;;;;;;;;;;;;;;;7.41;100.00;99324.00;5039872;28;19909;-81
2023/01/09 01:59:15;;;;;;;;;;;;;;;7.40;100.00;99322.31;5040195;28;19909;-81
2023/01/09 02:01:42;;;;;;;;;;;;;;;7.41;100.00;99330.97;5039736;28;19917;-81
2023/01/09 02:04:08;;;;;;;;;;;;;;;7.40;100.00;99331.91;5040427;28;19917;-81
2023/01/09 02:06:34;;;;;;;;;;;;;;;7.39;100.00;99331.06;5039648;28;19976;-81
2023/01/09 02:09:00;;;;;;;;;;;;;;;7.39;100.00;99332.84;5040563;28;19952;-81
2023/01/09 02:11:25;;;;;;;;;;;;;;;7.38;100.00;99334.56;5038809;28;20189;-81
2023/01/09 02:13:51;;;;;;;;;;;;;;;7.37;100.00;99327.69;5038362;28;20208;-81
2023/01/09 02:16:22;;;;;;;;;;;;;;;7.37;100.00;99327.69;5040076;28;19976;-81
2023/01/09 02:18:57;;;;;;;;;;;;;;;7.37;100.00;99330.31;5039891;28;19909;-81
2023/01/09 02:21:28;;;;;;;;;;;;;;;7.36;100.00;99336.41;5039675;28;20200;-81
2023/01/09 02:23:56;;;;;;;;;;;;;;;7.34;100.00;99322.63;5039546;28;20125;-81
2023/01/09 02:26:33;;;;;;;;;;;;;;;7.33;99.77;99327.91;5039651;28;19944;-81
2023/01/09 02:29:11;;;;;;;;;;;;;;;7.32;100.00;99337.50;5039694;28;20152;-81
2023/01/09 02:31:45;;;;;;;;;;;;;;;7.32;100.00;99336.66;5038803;28;19988;-81
2023/01/09 02:34:23;;;;;;;;;;;;;;;7.32;100.00;99337.50;5039646;28;19909;-81
2023/01/09 02:36:48;;;;;;;;;;;;;;;7.31;100.00;99338.41;5039255;28;20296;-81
2023/01/09 02:39:16;;;;;;;;;;;;;;;7.30;100.00;99334.97;5038794;28;19917;-81
2023/01/09 02:41:47;;;;;;;;;;;;;;;7.29;100.00;99333.31;5038901;28;19956;-81
2023/01/09 02:44:16;;;;;;;;;;;;;;;7.27;100.00;99324.69;5038574;28;19913;-81
2023/01/09 02:46:41;;;;;;;;;;;;;;;7.27;100.00;99331.69;5038802;28;19917;-81
2023/01/09 02:49:06;;;;;;;;;;;;;;;7.27;100.00;99335.13;5039434;28;19915;-81
2023/01/09 02:51:35;;;;;;;;;;;;;;;7.27;100.00;99335.13;5039112;28;19931;-81
2023/01/09 02:54:25;;;;;;;;;;;;;;;7.27;100.00;99336.88;5039365;28;20107;-81
2023/01/09 02:57:10;;;;;;;;;;;;;;;7.24;99.89;99329.22;5038741;28;19963;-81
2023/01/09 03:00:02;;;;;;;;;;;;;;;7.23;100.00;99328.38;5037875;28;20035;-81
2023/01/09 03:02:28;;;;;;;;;;;;;;;7.23;100.00;99327.56;5036416;28;20108;-81
2023/01/09 03:05:12;;;;;;;;;;;;;;;7.22;100.00;99323.25;5038688;28;19937;-81
2023/01/09 03:07:47;;;;;;;;;;;;;;;7.21;100.00;99319.81;5038339;28;19924;-81
2023/01/09 03:10:21;;;;;;;;;;;;;;;7.20;100.00;99320.72;5039119;28;20287;-81
2023/01/09 03:12:48;;;;;;;;;;;;;;;7.18;100.00;99322.56;5038680;28;20147;-81
2023/01/09 03:15:14;;;;;;;;;;;;;;;7.17;99.76;99315.69;5038626;28;19925;-81
2023/01/09 03:17:41;;;;;;;;;;;;;;;7.17;100.00;99312.22;5037767;28;20117;-81
2023/01/09 03:20:09;;;;;;;;;;;;;;;7.17;100.00;99304.41;5038876;28;20204;-81
2023/01/09 03:22:34;;;;;;;;;;;;;;;7.17;100.00;99313.09;5037943;28;19915;-81
2023/01/09 03:24:59;;;;;;;;;;;;;;;7.18;100.00;99303.50;5038739;28;19984;-81
2023/01/09 03:27:24;;;;;;;;;;;;;;;7.17;100.00;99305.28;5038379;28;19924;-81
2023/01/09 03:29:52;;;;;;;;;;;;;;;7.16;100.00;99300.97;5020223;28;19953;-81
2023/01/09 03:32:17;;;;;;;;;;;;;;;7.17;100.00;99304.41;5037364;28;19921;-81
2023/01/09 03:34:42;;;;;;;;;;;;;;;7.16;100.00;99307.97;5037655;28;19917;-81
2023/01/09 03:37:08;;;;;;;;;;;;;;;7.17;100.00;99299.22;5037912;28;19980;-81
2023/01/09 03:39:33;;;;;;;;;;;;;;;7.17;100.00;99307.03;5037715;28;19928;-81
2023/01/09 03:41:58;;;;;;;;;;;;;;;7.17;100.00;99301.81;5038213;28;20125;-81
2023/01/09 03:44:23;;;;;;;;;;;;;;;7.17;100.00;99307.03;5038879;28;20171;-80
2023/01/09 03:46:49;;;;;;;;;;;;;;;7.18;100.00;99308.72;5037573;28;19948;-80
2023/01/09 03:49:14;;;;;;;;;;;;;;;7.18;100.00;99311.31;5020640;28;19920;-80
2023/01/09 03:51:40;;;;;;;;;;;;;;;7.18;100.00;99311.31;5036317;28;19925;-80
2023/01/09 03:54:05;;;;;;;;;;;;;;;7.18;100.00;99312.16;5038283;28;20281;-80
2023/01/09 03:56:30;;;;;;;;;;;;;;;7.17;100.00;99322.66;5037879;28;20108;-80
2023/01/09 03:58:55;;;;;;;;;;;;;;;7.16;100.00;99319.22;5037590;28;19920;-80
2023/01/09 04:01:21;;;;;;;;;;;;;;;7.16;100.00;99311.41;5036635;28;19913;-80
2023/01/09 04:03:46;;;;;;;;;;;;;;;7.16;100.00;99324.41;5037468;28;19924;-80
2023/01/09 04:06:11;;;;;;;;;;;;;;;7.15;100.00;99320.16;5037988;28;19963;-80
2023/01/09 04:08:36;;;;;;;;;;;;;;;7.14;100.00;99310.63;5036074;28;19925;-80
2023/01/09 04:11:02;;;;;;;;;;;;;;;7.14;100.00;99309.81;5038404;28;19925;-80
2023/01/09 04:13:27;;;;;;;;;;;;;;;7.12;100.00;99296.84;5037707;28;19921;-80
2023/01/09 04:15:52;;;;;;;;;;;;;;;7.13;100.00;99292.47;5037508;28;20112;-80
2023/01/09 04:18:17;;;;;;;;;;;;;;;7.13;100.00;99288.13;5037780;28;19948;-80
2023/01/09 04:20:45;;;;;;;;;;;;;;;7.13;100.00;99288.13;5035924;28;20036;-80
2023/01/09 04:23:10;;;;;;;;;;;;;;;7.13;100.00;99282.94;5037746;28;19924;-80
2023/01/09 04:25:35;;;;;;;;;;;;;;;7.11;100.00;99285.63;5035722;28;19912;-80
2023/01/09 04:28:01;;;;;;;;;;;;;;;7.14;100.00;99283.78;5037750;28;19956;-80
2023/01/09 04:30:26;;;;;;;;;;;;;;;7.15;100.00;99280.22;5036006;28;19917;-80
2023/01/09 04:32:51;;;;;;;;;;;;;;;7.15;100.00;99280.22;5037500;28;19928;-80
2023/01/09 04:35:17;;;;;;;;;;;;;;;7.15;100.00;99280.22;5023876;28;20158;-80
2023/01/09 04:37:43;;;;;;;;;;;;;;;7.15;100.00;99275.03;5015951;28;19913;-80
2023/01/09 04:40:09;;;;;;;;;;;;;;;7.16;100.00;99279.31;5017741;28;20144;-80
2023/01/09 04:42:35;;;;;;;;;;;;;;;7.15;100.00;99278.50;5017079;28;19992;-80
2023/01/09 04:45:00;;;;;;;;;;;;;;;7.15;100.00;99267.22;5016127;28;20150;-80
2023/01/09 04:47:25;;;;;;;;;;;;;;;7.14;100.00;99279.41;5019497;28;19917;-80
2023/01/09 04:49:51;;;;;;;;;;;;;;;7.14;100.00;99278.56;5021292;28;20233;-80
2023/01/09 04:52:16;;;;;;;;;;;;;;;7.14;100.00;99270.75;5020418;28;19928;-80
2023/01/09 04:54:41;;;;;;;;;;;;;;;7.16;100.00;99274.13;5021064;28;19921;-80
2023/01/09 04:57:07;;;;;;;;;;;;;;;7.15;100.00;99265.47;5020662;28;19928;-80
2023/01/09 04:59:32;;;;;;;;;;;;;;;7.16;100.00;99266.31;5020954;28;19925;-80
2023/01/09 05:01:58;;;;;;;;;;;;;;;7.16;100.00;99259.31;5020138;28;19913;-80
2023/01/09 05:04:23;;;;;;;;;;;;;;;7.17;100.00;99257.56;5021097;28;19913;-80
2023/01/09 05:06:49;;;;;;;;;;;;;;;7.17;100.00;99254.94;5021237;28;19910;-80
2023/01/09 05:09:14;;;;;;;;;;;;;;;7.18;100.00;99251.44;5021300;28;19921;-80
2023/01/09 05:11:39;;;;;;;;;;;;;;;7.18;100.00;99256.66;5020821;28;19932;-80
2023/01/09 05:14:04;;;;;;;;;;;;;;;7.17;100.00;99250.59;5021280;28;19974;-80
2023/01/09 05:16:30;;;;;;;;;;;;;;;7.17;100.00;99245.41;5020709;28;19943;-80
2023/01/09 05:18:56;;;;;;;;;;;;;;;7.17;100.00;99236.72;5020985;28;19913;-80
2023/01/09 05:21:22;;;;;;;;;;;;;;;7.18;100.00;99241.03;5021081;28;20108;-80
2023/01/09 05:23:47;;;;;;;;;;;;;;;7.17;100.00;99234.13;5020644;28;19918;-80
2023/01/09 05:26:13;;;;;;;;;;;;;;;7.17;100.00;99239.31;5021110;28;20032;-80
2023/01/09 05:28:38;;;;;;;;;;;;;;;7.17;100.00;99244.53;5020922;28;19921;-80
2023/01/09 05:31:03;;;;;;;;;;;;;;;7.15;100.00;99242.03;5020510;28;19984;-80
2023/01/09 05:33:29;;;;;;;;;;;;;;;7.15;100.00;99238.56;5020743;28;19925;-80
2023/01/09 05:35:54;;;;;;;;;;;;;;;7.14;100.00;99235.13;5020406;28;19929;-80
2023/01/09 05:38:19;;;;;;;;;;;;;;;7.15;100.00;99230.75;5020951;28;20228;-80
2023/01/09 05:40:44;;;;;;;;;;;;;;;7.16;100.00;99229.84;5020350;28;20220;-80
2023/01/09 05:43:10;;;;;;;;;;;;;;;7.16;100.00;99229.84;5020761;28;20007;-80
2023/01/09 05:45:35;;;;;;;;;;;;;;;7.14;100.00;99227.31;5019683;28;19929;-80
2023/01/09 05:48:00;;;;;;;;;;;;;;;7.14;100.00;99227.31;5020942;28;19925;-80
2023/01/09 05:50:26;;;;;;;;;;;;;;;7.14;100.00;99229.94;5020294;28;19963;-80
2023/01/09 05:52:51;;;;;;;;;;;;;;;7.15;100.00;99230.75;5020226;28;19918;-80
2023/01/09 05:55:16;;;;;;;;;;;;;;;7.14;100.00;99227.31;5019225;28;20220;-80
2023/01/09 05:57:41;;;;;;;;;;;;;;;7.11;100.00;99217.94;5018722;28;20128;-80
2023/01/09 06:00:07;;;;;;;;;;;;;;;7.11;100.00;99236.16;5019487;28;20104;-80
2023/01/09 06:02:32;;;;;;;;;;;;;;;7.11;100.00;99233.53;5018604;28;19957;-80
2023/01/09 06:04:58;;;;;;;;;;;;;;;7.11;100.00;99240.50;5020994;28;20199;-80
2023/01/09 06:07:23;;;;;;;;;;;;;;;7.11;100.00;99235.28;5020239;28;20050;-80
2023/01/09 06:09:48;;;;;;;;;;;;;;;7.10;100.00;99237.06;5019919;28;20216;-80
2023/01/09 06:12:13;;;;;;;;;;;;;;;7.10;100.00;99231.84;5019192;28;19957;-80
2023/01/09 06:14:39;;;;;;;;;;;;;;;7.09;100.00;99231.94;5019647;28;19921;-80
2023/01/09 06:17:04;;;;;;;;;;;;;;;7.09;100.00;99234.53;5019864;28;19921;-80
2023/01/09 06:19:29;;;;;;;;;;;;;;;7.08;100.00;99231.09;5020238;28;19937;-80
2023/01/09 06:21:55;;;;;;;;;;;;;;;7.08;100.00;99233.69;5019730;28;20011;-80
2023/01/09 06:24:20;;;;;;;;;;;;;;;7.07;100.00;99216.38;5002141;28;20024;-80
2023/01/09 06:26:45;;;;;;;;;;;;;;;7.08;100.00;99225.88;5019582;28;19929;-80
2023/01/09 06:29:10;;;;;;;;;;;;;;;7.08;100.00;99220.69;5019929;28;19952;-80
2023/01/09 06:31:36;;;;;;;;;;;;;;;7.08;100.00;99223.28;5017941;28;19960;-80
2023/01/09 06:34:01;;;;;;;;;;;;;;;7.10;100.00;99228.41;5019753;28;19913;-80
2023/01/09 06:36:26;;;;;;;;;;;;;;;7.10;100.00;99229.25;5019762;28;20331;-80
2023/01/09 06:38:51;;;;;;;;;;;;;;;7.11;100.00;99217.06;5018277;28;19921;-80
2023/01/09 06:41:17;;;;;;;;;;;;;;;7.10;100.00;99229.25;5020157;28;19921;-80
2023/01/09 06:43:42;;;;;;;;;;;;;;;7.10;100.00;99234.44;5018832;28;19929;-80
2023/01/09 06:46:08;;;;;;;;;;;;;;;7.10;100.00;99238.81;5018268;28;19928;-80
2023/01/09 06:48:33;;;;;;;;;;;;;;;7.07;100.00;99260.63;5017603;28;19968;-80
2023/01/09 06:50:58;;;;;;;;;;;;;;;7.05;100.00;99257.28;5019624;28;20001;-80
2023/01/09 06:53:24;;;;;;;;;;;;;;;7.06;100.00;99265.94;5019305;28;20125;-80
2023/01/09 06:55:49;;;;;;;;;;;;;;;7.06;100.00;99269.38;5019278;28;19925;-80
2023/01/09 06:58:14;;;;;;;;;;;;;;;7.06;100.00;99268.53;5033881;28;19913;-80
2023/01/09 07:00:40;;;;;;;;;;;;;;;7.04;100.00;99273.81;5038499;28;19924;-80
2023/01/09 07:03:05;;;;;;;;;;;;;;;7.02;100.00;99273.06;5035006;28;20213;-80
2023/01/09 07:05:33;;;;;;;;;;;;;;;7.01;100.00;99273.97;5027272;28;19919;-80
2023/01/09 07:07:58;;;;;;;;;;;;;;;7.00;100.00;99289.66;5027275;28;19909;-80
2023/01/09 07:10:23;;;;;;;;;;;;;;;6.96;100.00;99288.97;5025729;28;19932;-80
2023/01/09 07:12:49;;;;;;;;;;;;;;;6.95;100.00;99296.84;5018718;28;19921;-80
2023/01/09 07:15:14;;;;;;;;;;;;;;;6.92;100.00;99303.06;5017986;28;19949;-80
2023/01/09 07:17:39;;;;;;;;;;;;;;;6.90;100.00;99315.31;5024308;28;19917;-80
2023/01/09 07:20:05;;;;;;;;;;;;;;;6.89;100.00;99313.63;5038639;28;19976;-80
2023/01/09 07:22:30;;;;;;;;;;;;;;;6.84;100.00;99318.22;5038425;28;20270;-80
2023/01/09 07:24:55;;;;;;;;;;;;;;;6.80;100.00;99333.13;5038235;28;19917;-80
2023/01/09 07:27:21;;;;;;;;;;;;;;;6.80;100.00;99330.53;5038381;28;19959;-80
2023/01/09 07:29:46;;;;;;;;;;;;;;;6.79;100.00;99344.47;5038316;28;19928;-80
2023/01/09 07:32:34;;;;;;;;;;;;;;;6.80;100.00;99350.50;5135356;27;19949;-90
2023/01/09 07:34:59;;;;;;;;;;;;;;;6.79;100.00;99359.25;5134628;28;19932;-90
2023/01/09 07:37:24;;;;;;;;;;;;;;;6.78;100.00;99371.41;5117235;28;20115;-90
2023/01/09 07:39:50;;;;;;;;;;;;;;;6.78;100.00;99366.19;5134145;28;19990;-90
2023/01/09 07:42:16;;;;;;;;;;;;;;;6.79;100.00;99375.69;5134229;28;19916;-90
2023/01/09 07:44:41;;;;;;;;;;;;;;;6.80;100.00;99386.94;5133803;28;19950;-90
2023/01/09 07:47:06;;;;;;;;;;;;;;;6.79;100.00;99390.47;5134164;28;20151;-90
2023/01/09 07:49:31;;;;;;;;;;;;;;;6.80;100.00;99394.75;5134130;28;19941;-91
2023/01/09 07:51:57;;;;;;;;;;;;;;;6.79;100.00;99408.69;5134050;28;20076;-90
2023/01/09 07:54:22;;;;;;;;;;;;;;;6.79;100.00;99413.91;5135358;28;19916;-90
2023/01/09 07:56:47;;;;;;;;;;;;;;;6.79;100.00;99425.13;5116645;28;20134;-89
2023/01/09 07:59:13;;;;;;;;;;;;;;;6.80;100.00;99424.22;5117014;28;19947;-90
2023/01/09 08:01:38;;;;;;;;;;;;;;;6.81;100.00;99432.88;5131861;28;19919;-89
2023/01/09 08:04:03;;;;;;;;;;;;;;;6.82;100.00;99439.75;5113972;28;19934;-89
2023/01/09 08:06:29;;;;;;;;;;;;;;;6.82;100.00;99444.97;5111708;28;19928;-90
2023/01/09 08:08:54;;;;;;;;;;;;;;;6.82;100.00;99452.75;5126619;28;20182;-90
2023/01/09 08:11:19;;;;;;;;;;;;;;;6.82;100.00;99455.38;5114900;28;19919;-89
2023/01/09 08:13:45;;;;;;;;;;;;;;;6.81;100.00;99457.13;5148421;27;19916;-90
2023/01/09 08:16:10;;;;;;;;;;;;;;;6.82;100.00;99468.38;5108041;28;20436;-90
2023/01/09 08:18:35;;;;;;;;;;;;;;;6.82;100.00;99474.44;5117491;28;19983;-90
2023/01/09 08:21:01;;;;;;;;;;;;;;;6.83;100.00;99483.09;5108829;27;20155;-90
2023/01/09 08:23:26;;;;;;;;;;;;;;;6.82;100.00;99482.25;5121110;27;19977;-89
2023/01/09 08:25:51;;;;;;;;;;;;;;;6.84;100.00;99488.22;5110223;28;20230;-90
2023/01/09 08:28:17;;;;;;;;;;;;;;;6.83;100.00;99491.72;5130757;27;19967;-90
2023/01/09 08:30:42;;;;;;;;;;;;;;;6.83;100.00;99496.94;5128564;27;19923;-90
2023/01/09 08:33:07;;;;;;;;;;;;;;;6.84;100.00;99510.78;5137598;27;20028;-90
2023/01/09 08:35:33;;;;;;;;;;;;;;;6.84;100.00;99511.66;5153206;27;19918;-90
2023/01/09 08:37:58;;;;;;;;;;;;;;;6.86;100.00;99514.19;5146424;27;19968;-90
2023/01/09 08:40:23;;;;;;;;;;;;;;;6.86;100.00;99530.63;5139847;27;20111;-90
2023/01/09 08:48:17;;;;;;;;;;;;;;;6.88;100.00;99541.81;5129429;27;19996;-90
2023/01/09 08:50:43;;;;;;;;;;;;;;;6.89;100.00;99546.13;5126545;27;19915;-89
2023/01/09 08:53:08;;;;;;;;;;;;;;;6.90;100.00;99546.94;5138215;27;19919;-90
2023/01/09 08:55:33;;;;;;;;;;;;;;;6.90;100.00;99559.97;5133480;27;19919;-89
2023/01/09 08:57:59;;;;;;;;;;;;;;;6.91;100.00;99559.03;5131634;27;19919;-90
2023/01/09 09:00:24;;;;;;;;;;;;;;;6.90;100.00;99566.00;5115192;27;19930;-89
2023/01/09 09:02:51;;;;;;;;;;;;;;;6.91;100.00;99580.72;5128659;27;19911;-90
2023/01/09 09:05:16;;;;;;;;;;;;;;;6.91;100.00;99574.66;5139151;27;19919;-90
2023/01/09 09:07:42;;;;;;;;;;;;;;;6.92;100.00;99586.75;5118369;27;20252;-90
2023/01/09 09:10:07;;;;;;;;;;;;;;;6.94;100.00;99597.94;5119810;27;19923;-90
2023/01/09 09:12:35;;;;;;;;;;;;;;;6.94;100.00;99590.13;5135404;27;19907;-89
2023/01/09 09:15:15;;;;;;;;;;;;;;;6.95;100.00;99598.78;5137911;27;19987;-90
2023/01/09 09:17:40;;;;;;;;;;;;;;;6.96;100.00;99603.09;5125550;27;19923;-90
2023/01/09 09:20:07;;;;;;;;;;;;;;;6.96;100.00;99611.72;5138705;27;19907;-90
2023/01/09 09:22:32;;;;;;;;;;;;;;;6.98;100.00;99617.72;5137286;27;19982;-90
2023/01/09 09:24:57;;;;;;;;;;;;;;;6.98;100.00;99619.47;5120073;27;20114;-90
2023/01/09 09:27:22;;;;;;;;;;;;;;;6.96;100.00;99616.94;5113239;27;19922;-90
2023/01/09 09:29:48;;;;;;;;;;;;;;;6.97;100.00;99629.06;5127093;27;20206;-89
2023/01/09 09:32:13;;;;;;;;;;;;;;;6.98;100.00;99622.06;5135766;27;19923;-90
2023/01/09 09:34:38;;;;;;;;;;;;;;;6.99;99.98;99629.00;5129411;27;19920;-90
2023/01/09 09:37:04;;;;;;;;;;;;;;;6.99;99.97;99639.41;5129345;27;19911;-90
2023/01/09 09:39:29;;;;;;;;;;;;;;;7.00;100.00;99646.28;5115388;28;19916;-90
2023/01/09 09:45:08;;;;;;;;;;;;;;;7.01;100.00;99661.00;5139869;27;19960;-90
2023/01/09 09:47:39;;;;;;;;;;;;;;;7.03;100.00;99666.97;5138904;27;19915;-90
2023/01/09 09:50:10;;;;;;;;;;;;;;;7.03;100.00;99680.00;5138133;27;19915;-90
2023/01/09 09:52:51;;;;;;;;;;;;;;;7.03;100.00;99672.19;5137573;27;19915;-90
2023/01/09 09:55:18;;;;;;;;;;;;;;;7.04;100.00;99681.66;5137513;27;20178;-90
2023/01/09 09:57:44;;;;;;;;;;;;;;;7.04;100.00;99686.88;5137818;27;20161;-90
2023/01/09 10:00:14;;;;;;;;;;;;;;;7.02;100.00;99692.16;5137121;27;19920;-90
2023/01/09 10:02:44;;;;;;;;;;;;;;;7.03;100.00;99698.22;5115695;28;20215;-90
2023/01/09 10:05:16;;;;;;;;;;;;;;;7.04;100.00;99705.09;5124214;27;19926;-90
2023/01/09 10:07:46;;;;;;;;;;;;;;;7.04;100.00;99707.69;5123346;27;19916;-90
2023/01/09 10:10:18;;;;;;;;;;;;;;;7.04;100.00;99716.38;5115647;28;19915;-90
2023/01/09 10:12:53;;;;;;;;;;;;;;;7.05;100.00;99714.59;5116779;28;20210;-90
2023/01/09 10:15:25;;;;;;;;;;;;;;;7.05;100.00;99722.41;5117399;28;19923;-90
2023/01/09 10:18:08;;;;;;;;;;;;;;;7.05;100.00;99728.47;5118010;28;19953;-90
2023/01/09 10:20:34;;;;;;;;;;;;;;;7.06;100.00;99740.56;5121608;27;20148;-90
2023/01/09 10:23:19;;;;;;;;;;;;;;;7.05;100.00;99738.88;5129449;27;19914;-90
2023/01/09 10:25:48;;;;;;;;;;;;;;;7.05;100.00;99749.28;5116830;28;19916;-90
2023/01/09 10:28:32;;;;;;;;;;;;;;;7.06;100.00;99763.16;5137608;27;20187;-90
2023/01/09 10:31:12;;;;;;;;;;;;;;;7.06;100.00;99771.81;5137296;27;19964;-90
2023/01/09 10:33:56;;;;;;;;;;;;;;;7.06;99.79;99763.16;5137998;27;19923;-90
2023/01/09 10:36:34;;;;;;;;;;;;;;;7.08;100.00;99776.97;5137623;27;20211;-89
2023/01/09 10:39:02;;;;;;;;;;;;;;;7.08;100.00;99774.38;5137192;27;19954;-90
2023/01/09 10:41:28;;;;;;;;;;;;;;;7.08;99.95;99777.81;5136975;27;19953;-90
2023/01/09 10:44:00;;;;;;;;;;;;;;;7.09;99.81;99776.03;5137346;27;19907;-90
2023/01/09 10:46:28;;;;;;;;;;;;;;;7.11;100.00;99790.69;5137037;27;19911;-90
2023/01/09 10:49:01;;;;;;;;;;;;;;;7.10;99.48;99782.94;5137062;27;19978;-90
2023/01/09 10:51:43;;;;;;;;;;;;;;;7.13;99.99;99789.78;5116991;28;20003;-90
2023/01/09 10:54:17;;;;;;;;;;;;;;;7.14;100.00;99799.28;5135061;27;19947;-90
2023/01/09 10:57:03;;;;;;;;;;;;;;;7.15;99.93;99799.22;5136611;27;19922;-90
2023/01/09 10:59:29;;;;;;;;;;;;;;;7.16;100.00;99800.06;5137661;27;19929;-90
2023/01/09 11:01:54;;;;;;;;;;;;;;;7.17;100.00;99806.94;5115965;28;20196;-90
2023/01/09 11:04:20;;;;;;;;;;;;;;;7.18;100.00;99804.28;5117821;27;19923;-90
2023/01/09 11:06:48;;;;;;;;;;;;;;;7.20;100.00;99812.03;5136665;27;19916;-90
2023/01/09 11:09:15;;;;;;;;;;;;;;;7.21;100.00;99803.31;5136759;27;19927;-90
2023/01/09 11:11:40;;;;;;;;;;;;;;;7.21;100.00;99800.72;5136358;27;19959;-90
2023/01/09 11:14:27;;;;;;;;;;;;;;;7.23;100.00;99806.69;5117117;27;20210;-90
2023/01/09 11:16:53;;;;;;;;;;;;;;;7.24;100.00;99800.56;5136572;27;20194;-89
2023/01/09 11:19:19;;;;;;;;;;;;;;;7.25;100.00;99794.44;5136842;27;19945;-90
2023/01/09 11:21:44;;;;;;;;;;;;;;;7.26;100.00;99803.97;5136504;27;19915;-90
2023/01/09 11:24:22;;;;;;;;;;;;;;;7.27;100.00;99816.06;5137766;27;19911;-90
2023/01/09 11:26:52;;;;;;;;;;;;;;;7.29;100.00;99814.22;5128368;27;19978;-89
2023/01/09 11:29:19;;;;;;;;;;;;;;;7.30;100.00;99819.38;5136451;28;20137;-89
2023/01/09 11:31:54;;;;;;;;;;;;;;;7.33;100.00;99825.38;5136371;27;19923;-90
2023/01/09 11:34:21;;;;;;;;;;;;;;;7.33;100.00;99828.84;5117134;28;20115;-90
2023/01/09 11:36:47;;;;;;;;;;;;;;;7.35;100.00;99832.22;5115604;28;19907;-89
2023/01/09 11:39:23;;;;;;;;;;;;;;;7.37;100.00;99837.34;5121382;28;19919;-90
2023/01/09 11:41:53;;;;;;;;;;;;;;;7.39;99.90;99840.75;5134748;28;20027;-90
2023/01/09 11:44:19;;;;;;;;;;;;;;;7.40;100.00;99838.03;5132303;27;19912;-90
2023/01/09 11:46:45;;;;;;;;;;;;;;;7.44;99.95;99841.38;5127191;27;19973;-90
2023/01/09 11:49:13;;;;;;;;;;;;;;;7.47;98.86;99847.28;5126397;28;19920;-90
2023/01/09 11:51:39;;;;;;;;;;;;;;;7.48;98.12;99854.22;5142626;27;19919;-89
2023/01/09 11:54:17;;;;;;;;;;;;;;;7.50;97.83;99849.78;5120473;28;19959;-90
2023/01/09 11:56:43;;;;;;;;;;;;;;;7.52;97.63;99852.31;5135218;28;19907;-90
2023/01/09 11:59:13;;;;;;;;;;;;;;;7.52;97.34;99865.34;5136642;28;19915;-90
2023/01/09 12:01:50;;;;;;;;;;;;;;;7.51;97.47;99861.03;5135330;28;19953;-90
2023/01/09 12:04:16;;;;;;;;;;;;;;;7.49;97.61;99865.47;5136340;28;19941;-90
2023/01/09 12:06:51;;;;;;;;;;;;;;;7.49;97.61;99874.16;5135666;27;20227;-90
2023/01/09 12:09:36;;;;;;;;;;;;;;;7.48;98.77;99858.59;5124378;28;19946;-90
2023/01/09 12:12:07;;;;;;;;;;;;;;;7.47;99.15;99870.72;5119907;28;20119;-90
2023/01/09 12:14:36;;;;;;;;;;;;;;;7.47;99.29;99870.72;5135877;28;20202;-89
2023/01/09 12:17:13;;;;;;;;;;;;;;;7.48;99.77;99877.66;5137575;27;19950;-90
2023/01/09 12:19:59;;;;;;;;;;;;;;;7.48;100.00;99882.03;5139537;27;20098;-90
2023/01/09 12:22:43;;;;;;;;;;;;;;;7.47;98.32;99883.75;5125572;27;19922;-90
2023/01/09 12:25:11;;;;;;;;;;;;;;;7.49;97.95;99886.31;5141114;27;19915;-90
2023/01/09 12:27:52;;;;;;;;;;;;;;;7.49;97.86;99887.19;5134048;27;19911;-90
2023/01/09 12:30:32;;;;;;;;;;;;;;;7.50;98.41;99881.03;5131110;27;19916;-89
2023/01/09 12:33:00;;;;;;;;;;;;;;;7.50;98.18;99891.47;5119400;27;19923;-90
2023/01/09 12:35:25;;;;;;;;;;;;;;;7.49;98.27;99884.56;5129479;27;19907;-89
2023/01/09 12:38:01;;;;;;;;;;;;;;;7.48;98.31;99895.91;5127462;27;19908;-90
2023/01/09 12:40:52;;;;;;;;;;;;;;;7.47;97.92;99894.19;5126015;27;20191;-90
2023/01/09 12:43:20;;;;;;;;;;;;;;;7.46;98.24;99897.72;5119134;28;20114;-90
2023/01/09 12:45:49;;;;;;;;;;;;;;;7.46;98.57;99910.75;5123357;27;20110;-90
2023/01/09 12:48:25;;;;;;;;;;;;;;;7.46;98.50;99908.13;5150640;27;19977;-90
2023/01/09 12:51:29;;;;;;;;;;;;;;;7.47;98.85;99916.78;5132375;27;19918;-90
2023/01/09 12:54:00;;;;;;;;;;;;;;;7.48;98.38;99908.06;5059890;28;19921;-90
2023/01/09 12:56:29;;;;;;;;;;;;;;;7.48;98.77;99924.56;5041359;28;19908;-89
2023/01/09 12:58:57;;;;;;;;;;;;;;;7.50;98.08;99919.28;5085204;28;19916;-90
2023/01/09 13:01:26;;;;;;;;;;;;;;;7.50;98.00;99924.50;5138695;27;19922;-90
2023/01/09 13:04:10;;;;;;;;;;;;;;;7.54;98.17;99925.22;5138476;27;20697;-90
2023/01/09 13:06:39;;;;;;;;;;;;;;;7.51;98.06;99920.94;5138977;27;19915;-90